createdAt,value
2019-02-27T00:00:59.625Z,964.57
2019-02-27T00:01:59.598Z,964.50
2019-02-27T00:02:59.580Z,964.51
2019-02-27T00:03:59.863Z,964.54
2019-02-27T00:04:59.615Z,964.56
2019-02-27T00:05:59.646Z,964.52
2019-02-27T00:06:59.537Z,964.51
2019-02-27T00:07:59.559Z,964.49
2019-02-27T00:09:00.477Z,964.48
2019-02-27T00:09:59.491Z,964.47
2019-02-27T00:10:59.487Z,964.55
2019-02-27T00:11:59.594Z,964.53
2019-02-27T00:12:59.498Z,964.50
2019-02-27T00:13:59.461Z,964.51
2019-02-27T00:15:04.489Z,964.51
2019-02-27T00:16:00.432Z,964.48
2019-02-27T00:16:59.547Z,964.51
2019-02-27T00:17:59.407Z,964.47
2019-02-27T00:18:59.446Z,964.50
2019-02-27T00:20:04.168Z,964.50
2019-02-27T00:20:59.367Z,964.49
2019-02-27T00:21:59.392Z,964.48
2019-02-27T00:22:59.378Z,964.50
2019-02-27T00:23:59.343Z,964.48
2019-02-27T00:25:03.015Z,964.51
2019-02-27T00:25:59.327Z,964.48
2019-02-27T00:26:59.308Z,964.49
2019-02-27T00:27:59.323Z,964.51
2019-02-27T00:28:59.283Z,964.41
2019-02-27T00:29:59.494Z,964.47
2019-02-27T00:30:59.309Z,964.47
2019-02-27T00:31:59.245Z,964.48
2019-02-27T00:32:59.242Z,964.45
2019-02-27T00:33:59.855Z,964.44
2019-02-27T00:34:59.238Z,964.43
2019-02-27T00:35:59.213Z,964.42
2019-02-27T00:36:59.213Z,964.41
2019-02-27T00:37:59.194Z,964.41
2019-02-27T00:38:59.221Z,964.41
2019-02-27T00:39:59.164Z,964.40
2019-02-27T00:40:59.151Z,964.39
2019-02-27T00:41:59.147Z,964.44
2019-02-27T00:42:59.147Z,964.46
2019-02-27T00:44:01.349Z,964.42
2019-02-27T00:44:59.128Z,964.43
2019-02-27T00:45:59.105Z,964.41
2019-02-27T00:46:59.087Z,964.41
2019-02-27T00:47:59.078Z,964.40
2019-02-27T00:48:59.816Z,964.39
2019-02-27T00:49:59.074Z,964.37
2019-02-27T00:50:59.085Z,964.33
2019-02-27T00:51:59.061Z,964.37
2019-02-27T00:52:59.020Z,964.31
2019-02-27T00:53:59.041Z,964.33
2019-02-27T00:54:59.027Z,964.34
2019-02-27T00:55:59.094Z,964.33
2019-02-27T00:56:59.051Z,964.31
2019-02-27T00:57:59.004Z,964.30
2019-02-27T00:59:00.214Z,964.29
2019-02-27T00:59:58.992Z,964.30
2019-02-27T01:00:58.992Z,964.32
2019-02-27T01:01:58.933Z,964.31
2019-02-27T01:02:58.926Z,964.30
2019-02-27T01:04:02.191Z,964.30
2019-02-27T01:04:58.904Z,964.29
2019-02-27T01:05:58.902Z,964.30
2019-02-27T01:06:58.891Z,964.26
2019-02-27T01:07:58.846Z,964.23
2019-02-27T01:08:58.861Z,964.24
2019-02-27T01:09:58.843Z,964.26
2019-02-27T01:10:58.822Z,964.21
2019-02-27T01:11:58.878Z,964.19
2019-02-27T01:12:58.854Z,964.19
2019-02-27T01:13:58.780Z,964.16
2019-02-27T01:14:58.775Z,964.15
2019-02-27T01:15:58.798Z,964.12
2019-02-27T01:16:58.775Z,964.11
2019-02-27T01:17:58.735Z,964.12
2019-02-27T01:18:58.767Z,964.16
2019-02-27T01:19:58.728Z,964.09
2019-02-27T01:20:58.728Z,964.08
2019-02-27T01:21:58.694Z,964.09
2019-02-27T01:22:58.706Z,964.06
2019-02-27T01:23:58.669Z,964.04
2019-02-27T01:24:58.661Z,964.01
2019-02-27T01:25:58.650Z,964.00
2019-02-27T01:26:58.682Z,963.98
2019-02-27T01:27:58.673Z,963.99
2019-02-27T01:28:58.621Z,963.95
2019-02-27T01:29:58.623Z,963.93
2019-02-27T01:30:58.596Z,963.94
2019-02-27T01:31:58.582Z,963.93
2019-02-27T01:32:58.577Z,963.92
2019-02-27T01:33:58.592Z,963.93
2019-02-27T01:34:58.551Z,963.96
2019-02-27T01:35:58.540Z,963.89
2019-02-27T01:36:58.625Z,963.87
2019-02-27T01:37:58.526Z,963.87
2019-02-27T01:38:58.514Z,963.86
2019-02-27T01:39:58.503Z,963.89
2019-02-27T01:40:58.538Z,963.90
2019-02-27T01:41:58.610Z,963.83
2019-02-27T01:42:58.478Z,963.84
2019-02-27T01:43:58.462Z,963.86
2019-02-27T01:44:58.457Z,963.79
2019-02-27T01:45:58.431Z,963.80
2019-02-27T01:47:01.882Z,963.78
2019-02-27T01:47:58.431Z,963.78
2019-02-27T01:48:58.413Z,963.75
2019-02-27T01:50:16.563Z,963.77
2019-02-27T01:50:59.372Z,963.76
2019-02-27T01:51:59.147Z,963.72
2019-02-27T01:52:58.438Z,963.71
2019-02-27T01:53:58.348Z,963.77
2019-02-27T01:54:58.338Z,963.75
2019-02-27T01:55:58.350Z,963.72
2019-02-27T01:56:59.913Z,963.78
2019-02-27T01:57:58.307Z,963.72
2019-02-27T01:58:58.287Z,963.71
2019-02-27T01:59:58.448Z,963.73
2019-02-27T02:00:58.255Z,963.66
2019-02-27T02:01:58.266Z,963.63
2019-02-27T02:02:58.290Z,963.64
2019-02-27T02:03:58.267Z,963.59
2019-02-27T02:04:58.258Z,963.58
2019-02-27T02:05:59.219Z,963.58
2019-02-27T02:06:58.207Z,963.53
2019-02-27T02:07:58.200Z,963.58
2019-02-27T02:08:58.173Z,963.56
2019-02-27T02:09:58.198Z,963.54
2019-02-27T02:10:58.846Z,963.57
2019-02-27T02:11:58.148Z,963.51
2019-02-27T02:12:58.146Z,963.45
2019-02-27T02:13:58.505Z,963.44
2019-02-27T02:14:58.120Z,963.43
2019-02-27T02:16:00.900Z,963.42
2019-02-27T02:16:58.098Z,963.42
2019-02-27T02:17:58.090Z,963.43
2019-02-27T02:18:58.153Z,963.42
2019-02-27T02:19:58.086Z,963.42
2019-02-27T02:21:00.879Z,963.42
2019-02-27T02:21:58.047Z,963.40
2019-02-27T02:22:58.023Z,963.35
2019-02-27T02:23:58.049Z,963.35
2019-02-27T02:24:57.994Z,963.32
2019-02-27T02:26:01.100Z,963.28
2019-02-27T02:26:58.019Z,963.31
2019-02-27T02:27:58.918Z,963.27
2019-02-27T02:28:58.131Z,963.25
2019-02-27T02:29:57.976Z,963.27
2019-02-27T02:30:57.936Z,963.30
2019-02-27T02:31:57.961Z,963.28
2019-02-27T02:32:57.921Z,963.32
2019-02-27T02:33:57.915Z,963.29
2019-02-27T02:34:57.899Z,963.29
2019-02-27T02:35:57.912Z,963.29
2019-02-27T02:37:01.480Z,963.28
2019-02-27T02:37:57.860Z,963.31
2019-02-27T02:38:57.865Z,963.28
2019-02-27T02:39:57.890Z,963.28
2019-02-27T02:40:57.839Z,963.24
2019-02-27T02:41:57.877Z,963.27
2019-02-27T02:42:59.096Z,963.29
2019-02-27T02:43:57.868Z,963.24
2019-02-27T02:44:58.455Z,963.25
2019-02-27T02:45:57.776Z,963.33
2019-02-27T02:46:57.796Z,963.30
2019-02-27T02:47:57.781Z,963.31
2019-02-27T02:48:57.747Z,963.25
2019-02-27T02:49:57.777Z,963.29
2019-02-27T02:50:57.742Z,963.28
2019-02-27T02:51:57.714Z,963.28
2019-02-27T02:52:57.688Z,963.32
2019-02-27T02:54:01.876Z,963.31
2019-02-27T02:54:57.708Z,963.30
2019-02-27T02:55:57.660Z,963.29
2019-02-27T02:57:00.490Z,963.26
2019-02-27T02:57:57.717Z,963.29
2019-02-27T02:58:57.656Z,963.27
2019-02-27T02:59:59.894Z,963.22
2019-02-27T03:00:57.598Z,963.21
2019-02-27T03:01:57.643Z,963.21
2019-02-27T03:03:00.947Z,963.16
2019-02-27T03:03:57.578Z,963.20
2019-02-27T03:04:57.647Z,963.22
2019-02-27T03:05:59.706Z,963.21
2019-02-27T03:06:57.596Z,963.20
2019-02-27T03:07:57.526Z,963.18
2019-02-27T03:08:57.501Z,963.16
2019-02-27T03:09:57.529Z,963.17
2019-02-27T03:10:57.486Z,963.17
2019-02-27T03:11:57.500Z,963.14
2019-02-27T03:12:57.477Z,963.13
2019-02-27T03:13:57.455Z,963.10
2019-02-27T03:14:58.424Z,963.08
2019-02-27T03:15:57.455Z,963.06
2019-02-27T03:16:57.457Z,963.07
2019-02-27T03:17:57.441Z,963.03
2019-02-27T03:18:57.400Z,963.03
2019-02-27T03:19:57.495Z,963.00
2019-02-27T03:20:57.375Z,963.00
2019-02-27T03:22:03.230Z,962.99
2019-02-27T03:22:58.387Z,963.01
2019-02-27T03:23:57.351Z,962.99
2019-02-27T03:25:03.295Z,962.96
2019-02-27T03:25:58.328Z,962.94
2019-02-27T03:26:57.312Z,962.93
2019-02-27T03:27:57.363Z,962.97
2019-02-27T03:28:57.329Z,962.98
2019-02-27T03:29:57.306Z,962.91
2019-02-27T03:30:57.267Z,962.90
2019-02-27T03:32:00.481Z,962.89
2019-02-27T03:32:57.306Z,962.87
2019-02-27T03:34:05.446Z,962.88
2019-02-27T03:34:57.237Z,962.84
2019-02-27T03:35:59.869Z,962.89
2019-02-27T03:36:58.202Z,962.89
2019-02-27T03:37:57.222Z,962.87
2019-02-27T03:38:59.210Z,962.85
2019-02-27T03:39:57.177Z,962.85
2019-02-27T03:40:57.160Z,962.82
2019-02-27T03:41:59.308Z,962.83
2019-02-27T03:42:57.164Z,962.79
2019-02-27T03:43:57.288Z,962.76
2019-02-27T03:44:59.922Z,962.78
2019-02-27T03:45:57.427Z,962.77
2019-02-27T03:46:57.085Z,962.79
2019-02-27T03:47:57.072Z,962.82
2019-02-27T03:49:03.164Z,962.83
2019-02-27T03:49:58.090Z,962.79
2019-02-27T03:50:57.038Z,962.86
2019-02-27T03:52:00.633Z,962.84
2019-02-27T03:52:57.065Z,962.84
2019-02-27T03:53:56.995Z,962.85
2019-02-27T03:54:58.218Z,962.86
2019-02-27T03:55:56.988Z,962.87
2019-02-27T03:56:57.042Z,962.88
2019-02-27T03:57:56.983Z,962.83
2019-02-27T03:58:56.992Z,962.85
2019-02-27T03:59:56.934Z,962.82
2019-02-27T04:00:56.943Z,962.80
2019-02-27T04:01:56.942Z,962.82
2019-02-27T04:02:56.891Z,962.81
2019-02-27T04:03:56.903Z,962.81
2019-02-27T04:04:56.989Z,962.79
2019-02-27T04:05:56.969Z,962.75
2019-02-27T04:06:57.288Z,962.75
2019-02-27T04:07:56.843Z,962.74
2019-02-27T04:08:57.382Z,962.75
2019-02-27T04:09:56.824Z,962.69
2019-02-27T04:10:56.815Z,962.73
2019-02-27T04:11:56.840Z,962.74
2019-02-27T04:12:56.831Z,962.70
2019-02-27T04:14:03.259Z,962.71
2019-02-27T04:14:57.782Z,962.72
2019-02-27T04:15:56.829Z,962.71
2019-02-27T04:16:56.745Z,962.73
2019-02-27T04:17:56.773Z,962.69
2019-02-27T04:19:02.952Z,962.69
2019-02-27T04:19:56.723Z,962.73
2019-02-27T04:20:56.734Z,962.74
2019-02-27T04:22:00.463Z,962.74
2019-02-27T04:22:56.705Z,962.76
2019-02-27T04:23:56.669Z,962.78
2019-02-27T04:24:57.704Z,962.79
2019-02-27T04:25:56.678Z,962.78
2019-02-27T04:26:56.688Z,962.79
2019-02-27T04:27:56.620Z,962.78
2019-02-27T04:28:56.622Z,962.78
2019-02-27T04:29:56.601Z,962.79
2019-02-27T04:30:56.634Z,962.78
2019-02-27T04:31:56.578Z,962.78
2019-02-27T04:32:56.595Z,962.81
2019-02-27T04:33:59.884Z,962.79
2019-02-27T04:36:04.437Z,962.81
2019-02-27T04:37:04.536Z,962.75
2019-02-27T04:38:04.398Z,962.79
2019-02-27T04:39:04.407Z,962.79
2019-02-27T04:40:04.312Z,962.81
2019-02-27T04:41:04.435Z,962.80
2019-02-27T04:42:04.297Z,962.79
2019-02-27T04:43:04.240Z,962.81
2019-02-27T04:44:06.048Z,962.79
2019-02-27T04:45:04.225Z,962.75
2019-02-27T04:46:04.883Z,962.71
2019-02-27T04:47:04.170Z,962.72
2019-02-27T04:48:04.203Z,962.73
2019-02-27T04:49:05.094Z,962.75
2019-02-27T04:50:04.162Z,962.72
2019-02-27T04:51:04.158Z,962.67
2019-02-27T04:52:04.115Z,962.71
2019-02-27T04:53:04.118Z,962.65
2019-02-27T04:54:06.633Z,962.70
2019-02-27T04:55:04.093Z,962.65
2019-02-27T04:56:04.095Z,962.71
2019-02-27T04:57:04.061Z,962.70
2019-02-27T04:58:04.119Z,962.69
2019-02-27T04:59:04.873Z,962.71
2019-02-27T05:00:04.040Z,962.73
2019-02-27T05:01:04.063Z,962.74
2019-02-27T05:02:04.017Z,962.76
2019-02-27T05:03:04.055Z,962.74
2019-02-27T05:04:04.038Z,962.74
2019-02-27T05:05:06.181Z,962.70
2019-02-27T05:06:03.984Z,962.73
2019-02-27T05:07:03.955Z,962.73
2019-02-27T05:08:03.982Z,962.77
2019-02-27T05:09:03.964Z,962.71
2019-02-27T05:10:06.882Z,962.74
2019-02-27T05:11:03.948Z,962.72
2019-02-27T05:12:03.891Z,962.79
2019-02-27T05:13:03.896Z,962.75
2019-02-27T05:14:03.890Z,962.76
2019-02-27T05:15:04.913Z,962.74
2019-02-27T05:16:14.785Z,962.75
2019-02-27T05:17:03.928Z,962.74
2019-02-27T05:18:03.950Z,962.68
2019-02-27T05:19:04.122Z,962.64
2019-02-27T05:20:03.969Z,962.66
2019-02-27T05:21:04.446Z,962.77
2019-02-27T05:22:03.798Z,962.76
2019-02-27T05:23:03.809Z,962.78
2019-02-27T05:24:05.208Z,962.78
2019-02-27T05:25:03.807Z,962.78
2019-02-27T05:26:03.794Z,962.78
2019-02-27T05:27:03.741Z,962.74
2019-02-27T05:28:03.721Z,962.79
2019-02-27T05:29:03.716Z,962.77
2019-02-27T05:30:03.735Z,962.80
2019-02-27T05:31:03.695Z,962.76
2019-02-27T05:32:03.721Z,962.77
2019-02-27T05:33:03.690Z,962.76
2019-02-27T05:34:03.676Z,962.81
2019-02-27T05:35:03.668Z,962.78
2019-02-27T05:36:03.639Z,962.72
2019-02-27T05:37:05.262Z,962.75
2019-02-27T05:38:03.638Z,962.74
2019-02-27T05:39:03.596Z,962.74
2019-02-27T05:40:03.597Z,962.74
2019-02-27T05:41:03.585Z,962.78
2019-02-27T05:42:06.077Z,962.74
2019-02-27T05:43:03.617Z,962.75
2019-02-27T05:44:03.588Z,962.78
2019-02-27T05:45:03.562Z,962.75
2019-02-27T05:46:03.851Z,962.82
2019-02-27T05:47:03.524Z,962.81
2019-02-27T05:48:03.549Z,962.80
2019-02-27T05:49:03.484Z,962.84
2019-02-27T05:50:03.557Z,962.81
2019-02-27T05:51:04.928Z,962.85
2019-02-27T05:52:03.464Z,962.86
2019-02-27T05:53:03.449Z,962.85
2019-02-27T05:54:03.461Z,962.87
2019-02-27T05:55:06.137Z,962.85
2019-02-27T05:56:03.457Z,962.87
2019-02-27T05:57:03.441Z,962.84
2019-02-27T05:58:03.396Z,962.87
2019-02-27T05:59:03.410Z,962.87
2019-02-27T06:00:03.573Z,962.81
2019-02-27T06:01:05.014Z,962.85
2019-02-27T06:02:03.387Z,962.88
2019-02-27T06:03:03.367Z,962.88
2019-02-27T06:04:03.330Z,962.90
2019-02-27T06:05:03.470Z,962.86
2019-02-27T06:06:03.353Z,962.93
2019-02-27T06:07:03.298Z,962.89
2019-02-27T06:08:03.920Z,962.92
2019-02-27T06:09:03.303Z,962.94
2019-02-27T06:10:03.356Z,962.90
2019-02-27T06:11:03.913Z,962.89
2019-02-27T06:12:06.635Z,962.89
2019-02-27T06:13:03.941Z,962.95
2019-02-27T06:14:03.264Z,962.92
2019-02-27T06:15:03.212Z,962.85
2019-02-27T06:16:06.600Z,962.85
2019-02-27T06:17:03.257Z,962.85
2019-02-27T06:18:03.227Z,962.83
2019-02-27T06:19:03.161Z,962.82
2019-02-27T06:20:07.697Z,962.82
2019-02-27T06:21:04.235Z,962.85
2019-02-27T06:22:03.154Z,962.83
2019-02-27T06:23:04.483Z,962.78
2019-02-27T06:24:03.117Z,962.73
2019-02-27T06:25:03.134Z,962.71
2019-02-27T06:26:03.158Z,962.75
2019-02-27T06:27:06.062Z,962.72
2019-02-27T06:28:03.075Z,962.71
2019-02-27T06:29:03.055Z,962.68
2019-02-27T06:30:03.053Z,962.69
2019-02-27T06:31:03.935Z,962.69
2019-02-27T06:32:03.056Z,962.67
2019-02-27T06:33:02.999Z,962.66
2019-02-27T06:34:03.031Z,962.68
2019-02-27T06:35:24.851Z,962.66
2019-02-27T06:36:05.386Z,962.64
2019-02-27T06:37:03.026Z,962.64
2019-02-27T06:38:02.995Z,962.62
2019-02-27T06:39:02.949Z,962.60
2019-02-27T06:40:04.728Z,962.63
2019-02-27T06:41:03.009Z,962.62
2019-02-27T06:42:02.909Z,962.63
2019-02-27T06:43:02.937Z,962.61
2019-02-27T06:44:02.898Z,962.57
2019-02-27T06:45:02.884Z,962.60
2019-02-27T06:46:02.901Z,962.61
2019-02-27T06:47:05.610Z,962.62
2019-02-27T06:48:02.942Z,962.61
2019-02-27T06:49:03.443Z,962.60
2019-02-27T06:50:02.822Z,962.55
2019-02-27T06:51:02.900Z,962.61
2019-02-27T06:52:02.825Z,962.64
2019-02-27T06:53:05.462Z,962.59
2019-02-27T06:54:02.771Z,962.58
2019-02-27T06:55:02.821Z,962.57
2019-02-27T06:56:03.480Z,962.53
2019-02-27T06:57:05.341Z,962.50
2019-02-27T06:58:02.754Z,962.53
2019-02-27T06:59:03.455Z,962.51
2019-02-27T07:00:03.128Z,962.49
2019-02-27T07:01:03.722Z,962.50
2019-02-27T07:02:02.720Z,962.50
2019-02-27T07:03:02.732Z,962.50
2019-02-27T07:04:04.796Z,962.48
2019-02-27T07:07:31.241Z,962.47
2019-02-27T07:08:29.951Z,962.50
2019-02-27T07:09:30.146Z,962.46
2019-02-27T07:10:29.971Z,962.47
2019-02-27T07:11:29.764Z,962.46
2019-02-27T07:12:29.747Z,962.47
2019-02-27T07:13:30.042Z,962.47
2019-02-27T07:14:29.671Z,962.45
2019-02-27T07:15:29.705Z,962.45
2019-02-27T07:16:30.722Z,962.45
2019-02-27T07:17:31.724Z,962.47
2019-02-27T07:18:29.696Z,962.46
2019-02-27T07:19:29.644Z,962.47
2019-02-27T07:20:30.681Z,962.42
2019-02-27T07:21:32.820Z,962.42
2019-02-27T07:22:29.607Z,962.42
2019-02-27T07:23:29.574Z,962.41
2019-02-27T07:24:30.613Z,962.40
2019-02-27T07:25:29.569Z,962.41
2019-02-27T07:26:30.623Z,962.38
2019-02-27T07:27:31.325Z,962.35
2019-02-27T07:28:29.579Z,962.35
2019-02-27T07:29:29.534Z,962.37
2019-02-27T07:30:29.545Z,962.36
2019-02-27T07:31:29.518Z,962.39
2019-02-27T07:32:31.594Z,962.35
2019-02-27T07:33:30.455Z,962.34
2019-02-27T07:35:01.721Z,962.31
2019-02-27T07:35:29.461Z,962.31
2019-02-27T07:36:29.429Z,962.23
2019-02-27T07:37:29.454Z,962.27
2019-02-27T07:38:29.417Z,962.23
2019-02-27T07:39:32.575Z,962.24
2019-02-27T07:40:29.430Z,962.25
2019-02-27T07:41:29.397Z,962.23
2019-02-27T07:42:32.120Z,962.25
2019-02-27T07:43:29.361Z,962.28
2019-02-27T07:44:29.417Z,962.30
2019-02-27T07:45:29.369Z,962.30
2019-02-27T07:46:29.347Z,962.25
2019-02-27T07:47:29.368Z,962.28
2019-02-27T07:48:29.346Z,962.26
2019-02-27T07:49:30.949Z,962.28
2019-02-27T07:50:29.276Z,962.28
2019-02-27T07:51:29.275Z,962.25
2019-02-27T07:52:32.103Z,962.23
2019-02-27T07:53:29.263Z,962.26
2019-02-27T07:54:29.674Z,962.25
2019-02-27T07:55:30.218Z,962.24
2019-02-27T07:56:29.279Z,962.23
2019-02-27T07:57:29.224Z,962.21
2019-02-27T07:58:33.780Z,962.23
2019-02-27T07:59:29.226Z,962.23
2019-02-27T08:00:29.164Z,962.22
2019-02-27T08:01:29.179Z,962.22
2019-02-27T08:02:29.182Z,962.26
2019-02-27T08:03:29.156Z,962.23
2019-02-27T08:04:29.122Z,962.21
2019-02-27T08:05:29.234Z,962.21
2019-02-27T08:06:29.117Z,962.23
2019-02-27T08:07:29.078Z,962.26
2019-02-27T08:08:29.075Z,962.27
2019-02-27T08:09:30.257Z,962.25
2019-02-27T08:10:29.537Z,962.30
2019-02-27T08:11:29.071Z,962.25
2019-02-27T08:12:29.088Z,962.26
2019-02-27T08:13:29.676Z,962.23
2019-02-27T08:14:29.027Z,962.26
2019-02-27T08:15:29.006Z,962.29
2019-02-27T08:16:29.093Z,962.20
2019-02-27T08:17:28.974Z,962.23
2019-02-27T08:18:30.450Z,962.25
2019-02-27T08:19:28.953Z,962.24
2019-02-27T08:20:28.948Z,962.28
2019-02-27T08:21:29.019Z,962.16
2019-02-27T08:22:28.918Z,962.20
2019-02-27T08:23:28.901Z,962.15
2019-02-27T08:24:28.892Z,962.17
2019-02-27T08:25:28.908Z,962.20
2019-02-27T08:26:28.892Z,962.19
2019-02-27T08:27:28.859Z,962.21
2019-02-27T08:28:28.845Z,962.23
2019-02-27T08:29:28.900Z,962.22
2019-02-27T08:30:28.827Z,962.21
2019-02-27T08:31:28.893Z,962.24
2019-02-27T08:32:28.897Z,962.23
2019-02-27T08:33:28.794Z,962.23
2019-02-27T08:34:28.779Z,962.24
2019-02-27T08:35:28.779Z,962.28
2019-02-27T08:36:28.753Z,962.19
2019-02-27T08:37:28.779Z,962.22
2019-02-27T08:38:28.756Z,962.21
2019-02-27T08:39:28.727Z,962.18
2019-02-27T08:40:28.709Z,962.20
2019-02-27T08:41:29.170Z,962.20
2019-02-27T08:42:28.691Z,962.21
2019-02-27T08:43:30.443Z,962.17
2019-02-27T08:44:28.700Z,962.12
2019-02-27T08:45:28.712Z,962.15
2019-02-27T08:46:28.663Z,962.17
2019-02-27T08:47:29.427Z,962.18
2019-02-27T08:48:28.618Z,962.19
2019-02-27T08:49:28.632Z,962.16
2019-02-27T08:50:29.235Z,962.16
2019-02-27T08:51:28.577Z,962.14
2019-02-27T08:52:28.595Z,962.12
2019-02-27T08:53:28.560Z,962.13
2019-02-27T08:54:32.232Z,962.11
2019-02-27T08:55:28.592Z,962.10
2019-02-27T08:56:30.040Z,962.07
2019-02-27T08:57:28.541Z,962.02
2019-02-27T08:58:29.741Z,961.97
2019-02-27T08:59:28.502Z,961.90
2019-02-27T09:00:29.427Z,961.84
2019-02-27T09:01:28.524Z,961.91
2019-02-27T09:02:29.383Z,961.90
2019-02-27T09:03:28.526Z,961.90
2019-02-27T09:04:49.555Z,961.93
2019-02-27T09:05:28.512Z,961.93
2019-02-27T09:06:28.486Z,961.93
2019-02-27T09:07:28.437Z,961.88
2019-02-27T09:08:31.350Z,961.91
2019-02-27T09:09:28.374Z,961.90
2019-02-27T09:10:30.652Z,961.88
2019-02-27T09:11:28.376Z,961.87
2019-02-27T09:12:28.479Z,961.90
2019-02-27T09:13:28.340Z,961.92
2019-02-27T09:14:28.330Z,961.91
2019-02-27T09:15:28.332Z,961.88
2019-02-27T09:16:28.303Z,961.87
2019-02-27T09:17:28.306Z,961.81
2019-02-27T09:18:28.298Z,961.79
2019-02-27T09:19:28.272Z,961.83
2019-02-27T09:20:28.269Z,961.81
2019-02-27T09:21:28.600Z,961.80
2019-02-27T09:22:28.958Z,961.81
2019-02-27T09:23:28.299Z,961.81
2019-02-27T09:24:28.298Z,961.81
2019-02-27T09:25:28.214Z,961.79
2019-02-27T09:26:28.188Z,961.77
2019-02-27T09:27:28.188Z,961.71
2019-02-27T09:28:28.481Z,961.72
2019-02-27T09:29:28.169Z,961.73
2019-02-27T09:30:30.088Z,961.71
2019-02-27T09:31:28.153Z,961.71
2019-02-27T09:32:28.127Z,961.68
2019-02-27T09:33:29.161Z,961.72
2019-02-27T09:34:28.149Z,961.65
2019-02-27T09:35:32.627Z,961.67
2019-02-27T09:36:28.083Z,961.64
2019-02-27T09:37:28.082Z,961.63
2019-02-27T09:38:28.097Z,961.61
2019-02-27T09:39:31.019Z,961.64
2019-02-27T09:40:29.624Z,961.62
2019-02-27T09:41:28.047Z,961.58
2019-02-27T09:42:29.004Z,961.60
2019-02-27T09:43:28.041Z,961.57
2019-02-27T09:44:28.033Z,961.57
2019-02-27T09:45:27.973Z,961.59
2019-02-27T09:46:27.967Z,961.57
2019-02-27T09:47:27.954Z,961.56
2019-02-27T09:48:31.125Z,961.54
2019-02-27T09:49:28.967Z,961.50
2019-02-27T09:50:27.918Z,961.52
2019-02-27T09:51:27.949Z,961.52
2019-02-27T09:52:30.090Z,961.52
2019-02-27T09:53:27.966Z,961.54
2019-02-27T09:54:27.907Z,961.55
2019-02-27T09:55:27.878Z,961.52
2019-02-27T09:56:29.120Z,961.48
2019-02-27T09:57:27.898Z,961.44
2019-02-27T09:58:29.349Z,961.47
2019-02-27T09:59:27.822Z,961.47
2019-02-27T10:00:27.873Z,961.40
2019-02-27T10:01:29.146Z,961.43
2019-02-27T10:02:27.790Z,961.39
2019-02-27T10:03:27.816Z,961.41
2019-02-27T10:04:28.952Z,961.44
2019-02-27T10:05:27.745Z,961.42
2019-02-27T10:06:27.791Z,961.42
2019-02-27T10:07:27.731Z,961.38
2019-02-27T10:08:27.758Z,961.40
2019-02-27T10:09:27.710Z,961.34
2019-02-27T10:10:27.694Z,961.39
2019-02-27T10:11:27.701Z,961.31
2019-02-27T10:12:27.835Z,961.32
2019-02-27T10:13:27.680Z,961.32
2019-02-27T10:14:27.647Z,961.30
2019-02-27T10:15:27.686Z,961.35
2019-02-27T10:16:27.707Z,961.28
2019-02-27T10:17:28.603Z,961.29
2019-02-27T10:18:27.634Z,961.29
2019-02-27T10:19:27.780Z,961.26
2019-02-27T10:20:27.576Z,961.28
2019-02-27T10:21:27.577Z,961.31
2019-02-27T10:22:27.604Z,961.29
2019-02-27T10:23:30.398Z,961.28
2019-02-27T10:24:27.555Z,961.24
2019-02-27T10:25:28.562Z,961.30
2019-02-27T10:26:27.510Z,961.29
2019-02-27T10:27:28.838Z,961.30
2019-02-27T10:28:27.500Z,961.23
2019-02-27T10:29:27.512Z,961.31
2019-02-27T10:30:27.497Z,961.29
2019-02-27T10:31:27.471Z,961.26
2019-02-27T10:32:27.456Z,961.26
2019-02-27T10:33:27.470Z,961.22
2019-02-27T10:34:27.456Z,961.21
2019-02-27T10:35:29.520Z,961.18
2019-02-27T10:36:27.413Z,961.18
2019-02-27T10:37:27.408Z,961.13
2019-02-27T10:38:27.411Z,961.12
2019-02-27T10:39:27.401Z,961.12
2019-02-27T10:40:27.367Z,961.17
2019-02-27T10:41:27.369Z,961.11
2019-02-27T10:42:27.353Z,961.12
2019-02-27T10:43:27.319Z,961.06
2019-02-27T10:44:27.304Z,961.04
2019-02-27T10:45:27.377Z,961.02
2019-02-27T10:46:27.286Z,961.04
2019-02-27T10:47:27.279Z,961.00
2019-02-27T10:48:27.262Z,961.04
2019-02-27T10:49:27.294Z,960.99
2019-02-27T10:50:27.241Z,960.97
2019-02-27T10:51:27.276Z,961.05
2019-02-27T10:52:27.238Z,960.98
2019-02-27T10:53:27.899Z,961.00
2019-02-27T10:54:27.197Z,960.97
2019-02-27T10:55:27.286Z,960.95
2019-02-27T10:56:27.190Z,960.98
2019-02-27T10:57:31.598Z,960.97
2019-02-27T10:58:27.150Z,961.00
2019-02-27T10:59:27.142Z,960.97
2019-02-27T11:00:27.181Z,960.93
2019-02-27T11:01:27.121Z,960.93
2019-02-27T11:02:27.428Z,960.88
2019-02-27T11:03:27.440Z,960.89
2019-02-27T11:04:27.122Z,960.85
2019-02-27T11:05:27.073Z,960.88
2019-02-27T11:06:33.807Z,960.90
2019-02-27T11:07:28.059Z,960.88
2019-02-27T11:08:29.605Z,960.91
2019-02-27T11:09:27.100Z,960.83
2019-02-27T11:10:27.040Z,960.82
2019-02-27T11:11:27.016Z,960.82
2019-02-27T11:12:29.454Z,960.82
2019-02-27T11:13:26.979Z,960.78
2019-02-27T11:14:31.783Z,960.80
2019-02-27T11:15:27.996Z,960.74
2019-02-27T11:16:27.947Z,960.75
2019-02-27T11:17:26.946Z,960.82
2019-02-27T11:18:26.957Z,960.75
2019-02-27T11:19:26.938Z,960.78
2019-02-27T11:20:26.942Z,960.72
2019-02-27T11:21:26.915Z,960.70
2019-02-27T11:22:26.961Z,960.73
2019-02-27T11:23:26.881Z,960.68
2019-02-27T11:24:26.863Z,960.66
2019-02-27T11:25:26.865Z,960.70
2019-02-27T11:26:26.879Z,960.71
2019-02-27T11:27:26.838Z,960.67
2019-02-27T11:28:26.867Z,960.73
2019-02-27T11:29:26.803Z,960.67
2019-02-27T11:30:26.798Z,960.69
2019-02-27T11:31:26.829Z,960.64
2019-02-27T11:32:27.430Z,960.58
2019-02-27T11:33:26.767Z,960.59
2019-02-27T11:34:26.751Z,960.58
2019-02-27T11:35:26.745Z,960.53
2019-02-27T11:36:26.737Z,960.56
2019-02-27T11:37:26.728Z,960.53
2019-02-27T11:38:26.747Z,960.53
2019-02-27T11:39:26.710Z,960.45
2019-02-27T11:40:26.693Z,960.45
2019-02-27T11:41:26.677Z,960.37
2019-02-27T11:42:29.021Z,960.37
2019-02-27T11:43:27.681Z,960.36
2019-02-27T11:44:26.685Z,960.33
2019-02-27T11:45:26.651Z,960.37
2019-02-27T11:46:26.635Z,960.33
2019-02-27T11:47:26.614Z,960.33
2019-02-27T11:48:26.601Z,960.29
2019-02-27T11:49:26.636Z,960.22
2019-02-27T11:50:26.587Z,960.22
2019-02-27T11:51:27.981Z,960.20
2019-02-27T11:52:28.666Z,960.20
2019-02-27T11:53:26.544Z,960.21
2019-02-27T11:54:26.556Z,960.13
2019-02-27T11:55:26.523Z,960.08
2019-02-27T11:56:26.531Z,960.10
2019-02-27T11:57:27.286Z,960.11
2019-02-27T11:58:26.481Z,960.07
2019-02-27T11:59:26.540Z,960.04
2019-02-27T12:00:27.431Z,960.07
2019-02-27T12:01:26.483Z,960.03
2019-02-27T12:02:29.029Z,960.09
2019-02-27T12:03:26.430Z,960.08
2019-02-27T12:04:26.443Z,960.07
2019-02-27T12:05:31.383Z,960.04
2019-02-27T12:06:27.388Z,960.04
2019-02-27T12:07:26.419Z,960.07
2019-02-27T12:08:26.855Z,960.06
2019-02-27T12:09:26.365Z,960.05
2019-02-27T12:10:26.396Z,960.02
2019-02-27T12:11:26.335Z,959.96
2019-02-27T12:12:26.327Z,959.96
2019-02-27T12:13:26.314Z,959.98
2019-02-27T12:14:26.316Z,959.97
2019-02-27T12:15:27.306Z,960.01
2019-02-27T12:16:26.324Z,959.99
2019-02-27T12:17:26.320Z,959.93
2019-02-27T12:18:26.264Z,959.93
2019-02-27T12:19:26.244Z,959.94
2019-02-27T12:20:26.227Z,959.97
2019-02-27T12:21:26.341Z,959.90
2019-02-27T12:22:26.216Z,959.88
2019-02-27T12:23:26.221Z,959.88
2019-02-27T12:24:26.201Z,959.79
2019-02-27T12:25:28.982Z,959.83
2019-02-27T12:26:26.186Z,959.80
2019-02-27T12:27:47.730Z,959.83
2019-02-27T12:28:27.148Z,959.76
2019-02-27T12:29:26.575Z,959.78
2019-02-27T12:30:26.123Z,959.76
2019-02-27T12:31:26.105Z,959.76
2019-02-27T12:32:26.107Z,959.70